createdAt,value
2018-05-10T00:02:10.966Z,55.90
2018-05-10T00:04:47.022Z,55.70
2018-05-10T00:07:22.139Z,55.60
2018-05-10T00:09:57.441Z,55.10
2018-05-10T00:12:32.760Z,55.10
2018-05-10T00:15:07.998Z,55.60
2018-05-10T00:17:43.272Z,55.70
2018-05-10T00:20:18.407Z,55.40
2018-05-10T00:22:53.720Z,55.90
2018-05-10T00:25:28.918Z,56.40
2018-05-10T00:28:04.140Z,55.90
2018-05-10T00:30:39.993Z,56.70
2018-05-10T00:33:15.195Z,56.70
2018-05-10T00:35:50.455Z,56.20
2018-05-10T00:38:26.555Z,57.40
2018-05-10T00:41:01.675Z,57.40
2018-05-10T00:43:36.963Z,57.60
2018-05-10T00:46:12.268Z,57.90
2018-05-10T00:48:48.270Z,58.00
2018-05-10T00:51:23.396Z,57.90
2018-05-10T00:53:58.635Z,57.30
2018-05-10T00:56:34.550Z,56.50
2018-05-10T00:59:10.545Z,56.40
2018-05-10T01:01:45.653Z,58.00
2018-05-10T01:04:20.886Z,58.90
2018-05-10T01:06:56.210Z,61.50
2018-05-10T01:09:32.200Z,67.50
2018-05-10T01:12:07.354Z,67.40
2018-05-10T01:14:42.632Z,68.20
2018-05-10T01:17:18.510Z,69.30
2018-05-10T01:19:53.650Z,69.30
2018-05-10T01:22:28.878Z,70.50
2018-05-10T01:25:04.235Z,71.10
2018-05-10T01:27:39.498Z,71.00
2018-05-10T01:30:14.776Z,71.90
2018-05-10T01:32:50.004Z,72.70
2018-05-10T01:35:42.901Z,73.50
2018-05-10T01:38:18.042Z,71.90
2018-05-10T01:40:53.238Z,72.60
2018-05-10T01:43:28.496Z,72.30
2018-05-10T01:46:04.574Z,76.80
2018-05-10T01:48:39.840Z,76.70
2018-05-10T01:51:15.100Z,77.70
2018-05-10T01:53:51.111Z,78.70
2018-05-10T01:56:26.965Z,76.90
2018-05-10T01:59:02.108Z,76.90
2018-05-10T02:01:37.362Z,74.70
2018-05-10T02:04:12.473Z,75.30
2018-05-10T02:06:47.809Z,74.70
2018-05-10T02:09:23.197Z,74.50
2018-05-10T02:11:58.501Z,74.00
2018-05-10T02:14:33.760Z,73.50
2018-05-10T02:17:09.669Z,75.00
2018-05-10T02:19:45.755Z,75.00
2018-05-10T02:22:21.761Z,74.40
2018-05-10T02:24:57.048Z,74.50
2018-05-10T02:27:32.586Z,74.90
2018-05-10T02:30:07.747Z,75.60
2018-05-10T02:32:43.051Z,75.80
2018-05-10T02:35:18.335Z,75.30
2018-05-10T02:37:53.571Z,75.70
2018-05-10T02:40:28.823Z,76.20
2018-05-10T02:43:03.915Z,78.20
2018-05-10T02:45:39.840Z,79.50
2018-05-10T02:48:15.093Z,79.60
2018-05-10T02:50:51.097Z,78.70
2018-05-10T02:53:27.077Z,78.50
2018-05-10T02:56:02.403Z,78.50
2018-05-10T02:58:37.592Z,79.20
2018-05-10T03:01:13.591Z,80.40
2018-05-10T03:03:50.683Z,80.80
2018-05-10T03:06:25.836Z,80.60
2018-05-10T03:09:01.091Z,80.00
2018-05-10T03:11:36.235Z,80.90
2018-05-10T03:14:11.338Z,81.30
2018-05-10T03:16:47.346Z,82.90
2018-05-10T03:19:22.493Z,83.00
2018-05-10T03:21:57.767Z,82.60
2018-05-10T03:24:33.002Z,83.30
2018-05-10T03:27:08.177Z,84.00
2018-05-10T03:29:44.192Z,85.30
2018-05-10T03:32:19.329Z,85.20
2018-05-10T03:34:54.556Z,85.80
2018-05-10T03:37:29.821Z,86.30
2018-05-10T03:40:05.110Z,86.30
2018-05-10T03:42:41.027Z,87.10
2018-05-10T03:45:16.152Z,87.10
2018-05-10T03:47:51.354Z,86.70
2018-05-10T03:50:26.643Z,86.90
2018-05-10T03:53:02.670Z,87.20
2018-05-10T03:55:37.939Z,87.30
2018-05-10T03:58:13.150Z,88.50
2018-05-10T04:00:48.389Z,86.00
2018-05-10T04:03:59.051Z,86.10
2018-05-10T04:10:00.529Z,85.80
2018-05-10T04:12:35.664Z,86.00
2018-05-10T04:15:10.916Z,85.70
2018-05-10T04:17:46.116Z,86.10
2018-05-10T04:20:22.160Z,84.90
2018-05-10T04:22:58.034Z,84.10
2018-05-10T04:25:33.354Z,84.20
2018-05-10T04:28:08.469Z,85.70
2018-05-10T04:30:43.746Z,84.20
2018-05-10T04:33:18.924Z,85.00
2018-05-10T04:35:54.881Z,85.30
2018-05-10T04:38:31.326Z,85.70
2018-05-10T04:41:06.565Z,88.30
2018-05-10T04:43:41.809Z,88.70
2018-05-10T04:46:17.163Z,88.40
2018-05-10T04:48:52.479Z,89.10
2018-05-10T04:51:27.678Z,90.30
2018-05-10T04:54:02.977Z,89.60
2018-05-10T04:56:39.020Z,87.40
2018-05-10T04:59:14.151Z,87.40
2018-05-10T05:01:49.331Z,85.40
2018-05-10T05:04:24.571Z,85.10
2018-05-10T05:06:59.850Z,87.70
2018-05-10T05:09:35.057Z,84.50
2018-05-10T05:12:10.448Z,87.50
2018-05-10T05:14:46.387Z,87.20
2018-05-10T05:17:21.608Z,87.10
2018-05-10T05:19:56.736Z,88.60
2018-05-10T05:22:32.007Z,87.10
2018-05-10T05:25:07.227Z,87.50
2018-05-10T05:27:42.629Z,88.80
2018-05-10T05:30:17.959Z,88.60
2018-05-10T05:32:53.076Z,88.40
2018-05-10T05:35:29.065Z,88.10
2018-05-10T05:38:04.269Z,87.90
2018-05-10T05:40:39.399Z,88.00
2018-05-10T05:43:14.715Z,87.60
2018-05-10T05:45:49.991Z,88.00
2018-05-10T05:48:25.312Z,87.00
2018-05-10T05:51:01.285Z,86.20
2018-05-10T05:53:36.619Z,86.30
2018-05-10T05:56:12.013Z,86.10
2018-05-10T05:58:47.272Z,85.50
2018-05-10T06:01:22.411Z,87.00
2018-05-10T06:03:57.677Z,87.70
2018-05-10T06:06:32.875Z,86.70
2018-05-10T06:09:08.870Z,83.70
2018-05-10T06:11:43.973Z,83.70
2018-05-10T06:14:19.158Z,81.40
2018-05-10T06:16:54.532Z,80.40
2018-05-10T06:19:29.735Z,80.30
2018-05-10T06:22:05.618Z,78.40
2018-05-10T06:24:40.901Z,78.40
2018-05-10T06:27:16.069Z,78.40
2018-05-10T06:29:51.193Z,77.60
2018-05-10T06:32:26.532Z,79.30
2018-05-10T06:35:01.691Z,77.50
2018-05-10T06:37:36.858Z,75.20
2018-05-10T06:40:12.094Z,74.60
2018-05-10T06:42:47.277Z,75.40
2018-05-10T06:45:22.510Z,76.30
2018-05-10T06:47:57.840Z,72.10
2018-05-10T06:50:33.758Z,71.00
2018-05-10T06:53:09.721Z,74.00
2018-05-10T06:55:44.953Z,74.10
2018-05-10T06:58:20.883Z,73.80
2018-05-10T07:00:56.838Z,72.80
2018-05-10T07:03:32.009Z,72.80
2018-05-10T07:06:08.010Z,73.20
2018-05-10T07:08:43.914Z,72.50
2018-05-10T07:11:19.035Z,72.50
2018-05-10T07:13:54.383Z,69.30
2018-05-10T07:16:29.726Z,68.10
2018-05-10T07:19:05.917Z,67.40
2018-05-10T07:21:41.813Z,58.40
2018-05-10T07:24:16.928Z,58.30
2018-05-10T07:26:52.967Z,54.00
2018-05-10T07:29:28.268Z,57.90
2018-05-10T07:32:04.214Z,57.60
2018-05-10T07:34:39.437Z,57.60
2018-05-10T07:37:15.570Z,57.40
2018-05-10T07:39:52.458Z,61.60
2018-05-10T07:42:27.688Z,64.10
2018-05-10T07:45:02.852Z,63.60
2018-05-10T07:47:38.809Z,62.80
2018-05-10T07:50:14.046Z,62.80
2018-05-10T07:52:49.311Z,63.10
2018-05-10T07:55:24.591Z,60.70
2018-05-10T07:57:59.823Z,61.20
2018-05-10T08:00:35.114Z,60.80
2018-05-10T08:03:10.372Z,60.90
2018-05-10T08:05:45.676Z,60.00
2018-05-10T08:08:21.681Z,58.00
2018-05-10T08:10:56.856Z,57.90
2018-05-10T08:13:33.664Z,57.60
2018-05-10T08:16:09.738Z,54.80
2018-05-10T08:18:45.619Z,54.90
2018-05-10T08:21:38.454Z,54.80
2018-05-10T08:24:13.821Z,54.80
2018-05-10T08:26:49.172Z,56.20
2018-05-10T08:29:32.538Z,56.10
2018-05-10T08:32:07.719Z,56.10
2018-05-10T08:34:43.081Z,57.00
2018-05-10T08:37:18.204Z,56.80
2018-05-10T08:39:53.312Z,59.40
2018-05-10T08:42:28.365Z,60.00
2018-05-10T08:45:03.487Z,58.10
2018-05-10T08:47:39.397Z,55.10
2018-05-10T08:50:14.560Z,55.00
2018-05-10T08:52:49.829Z,53.00
2018-05-10T08:55:25.034Z,53.40
2018-05-10T08:58:01.027Z,52.60
2018-05-10T09:00:36.165Z,52.50
2018-05-10T09:03:11.305Z,51.60
2018-05-10T09:05:46.591Z,51.30
2018-05-10T09:08:21.740Z,53.10
2018-05-10T09:10:57.685Z,52.30
2018-05-10T09:13:32.903Z,52.20
2018-05-10T09:16:08.157Z,50.70
2018-05-10T09:18:43.472Z,50.30
2018-05-10T09:21:18.728Z,48.80
2018-05-10T09:23:53.980Z,49.20
2018-05-10T09:26:30.396Z,49.90
2018-05-10T09:29:07.318Z,48.00
2018-05-10T09:31:42.533Z,47.90
2018-05-10T09:34:17.725Z,47.40
2018-05-10T09:36:52.974Z,48.00
2018-05-10T09:39:28.158Z,48.70
2018-05-10T09:42:04.097Z,49.10
2018-05-10T09:44:40.327Z,49.00
2018-05-10T09:47:16.367Z,49.50
2018-05-10T09:49:51.551Z,49.50
2018-05-10T09:52:26.721Z,50.50
2018-05-10T09:55:01.990Z,50.60
2018-05-10T09:57:37.227Z,49.90
2018-05-10T10:03:12.027Z,51.00
2018-05-10T10:05:47.311Z,51.10
2018-05-10T10:08:25.856Z,50.90
2018-05-10T10:11:02.810Z,51.30
2018-05-10T10:13:37.996Z,51.00
2018-05-10T10:16:13.264Z,49.40
2018-05-10T10:18:48.341Z,50.20
2018-05-10T10:21:23.553Z,50.30
2018-05-10T10:23:58.808Z,50.50
2018-05-10T10:26:34.043Z,51.10
2018-05-10T10:29:09.229Z,50.70
2018-05-10T10:31:44.503Z,50.20
2018-05-10T10:34:19.732Z,51.40
2018-05-10T10:36:54.992Z,50.90
2018-05-10T10:39:30.034Z,50.50
2018-05-10T10:42:05.323Z,50.40
2018-05-10T10:44:40.493Z,50.80
2018-05-10T10:47:15.760Z,50.50
2018-05-10T10:49:51.793Z,51.90
2018-05-10T10:52:26.940Z,51.90
2018-05-10T10:55:02.130Z,51.90
2018-05-10T10:57:37.337Z,52.40
2018-05-10T11:00:12.451Z,49.90
2018-05-10T11:02:47.752Z,49.10
2018-05-10T11:05:22.983Z,48.50
2018-05-10T11:07:58.223Z,48.60
2018-05-10T11:10:33.482Z,48.10
2018-05-10T11:13:08.852Z,49.00
2018-05-10T11:15:43.974Z,48.90
2018-05-10T11:18:19.320Z,48.60
2018-05-10T11:20:54.621Z,50.70
2018-05-10T11:23:29.758Z,53.10
2018-05-10T11:26:05.790Z,56.50
2018-05-10T11:28:40.888Z,56.60
2018-05-10T11:31:16.152Z,56.40
2018-05-10T11:33:51.276Z,55.90
2018-05-10T11:36:27.139Z,55.50
2018-05-10T11:39:02.365Z,55.50
2018-05-10T11:41:37.435Z,54.60
2018-05-10T11:44:12.757Z,53.70
2018-05-10T11:46:48.063Z,54.30
2018-05-10T11:49:23.934Z,54.70
2018-05-10T11:51:59.912Z,53.90
2018-05-10T11:54:35.267Z,53.90
2018-05-10T11:57:10.568Z,53.50
2018-05-10T11:59:45.921Z,54.10
2018-05-10T12:02:21.187Z,54.40
2018-05-10T12:04:56.298Z,55.50
2018-05-10T12:07:31.470Z,54.30
2018-05-10T12:10:07.441Z,54.50
2018-05-10T12:12:42.664Z,54.50
2018-05-10T12:15:17.771Z,54.70
2018-05-10T12:17:53.754Z,53.80
2018-05-10T12:20:29.067Z,53.50
2018-05-10T12:23:04.098Z,52.70
2018-05-10T12:25:39.312Z,51.80
2018-05-10T12:28:14.529Z,51.20
2018-05-10T12:30:52.113Z,51.60
2018-05-10T12:33:28.015Z,53.10
2018-05-10T12:36:03.306Z,53.10
2018-05-10T12:38:38.602Z,51.60
2018-05-10T12:41:14.713Z,53.20
2018-05-10T12:43:52.390Z,53.20
2018-05-10T12:46:27.604Z,53.20
2018-05-10T12:49:02.893Z,52.40
2018-05-10T12:51:38.011Z,52.20
2018-05-10T12:54:13.345Z,51.90
2018-05-10T12:56:48.653Z,52.60
2018-05-10T12:59:23.950Z,52.80
2018-05-10T13:01:59.301Z,52.60
2018-05-10T13:04:35.830Z,53.00
2018-05-10T13:07:11.669Z,52.30
2018-05-10T13:09:46.849Z,52.30
2018-05-10T13:12:23.894Z,51.60
2018-05-10T13:14:59.856Z,53.00
2018-05-10T13:17:34.985Z,53.00
2018-05-10T13:20:10.132Z,53.30
2018-05-10T13:22:45.462Z,53.10
2018-05-10T13:25:20.568Z,53.30
2018-05-10T13:27:55.787Z,54.70
2018-05-10T13:30:31.825Z,54.40
2018-05-10T13:33:10.341Z,54.40
2018-05-10T13:35:45.559Z,53.80
2018-05-10T13:38:20.819Z,53.60
2018-05-10T13:40:55.953Z,53.70
2018-05-10T13:43:31.933Z,53.10
2018-05-10T13:46:08.781Z,52.80
2018-05-10T13:48:44.745Z,51.90
2018-05-10T13:51:19.877Z,51.90
2018-05-10T13:53:55.057Z,50.60
2018-05-10T13:56:32.081Z,49.10
2018-05-10T13:59:07.444Z,49.10
2018-05-10T14:01:42.560Z,49.60
2018-05-10T14:04:17.909Z,49.80
2018-05-10T14:06:53.829Z,47.50
2018-05-10T14:09:29.854Z,47.30
2018-05-10T14:12:04.990Z,47.20
2018-05-10T14:14:40.206Z,45.10
2018-05-10T14:17:15.651Z,42.60
2018-05-10T14:19:50.850Z,41.10
2018-05-10T14:22:26.148Z,40.60
2018-05-10T14:25:01.363Z,41.70
2018-05-10T14:27:37.298Z,41.50
2018-05-10T14:30:12.397Z,41.60
2018-05-10T14:32:47.551Z,41.90
2018-05-10T14:35:22.686Z,40.70
2018-05-10T14:37:57.961Z,40.80
2018-05-10T14:40:33.354Z,40.80
2018-05-10T14:43:08.439Z,41.00
2018-05-10T14:45:43.765Z,41.80
2018-05-10T14:48:19.125Z,41.70
2018-05-10T14:50:54.442Z,42.60
2018-05-10T14:53:29.748Z,42.00
2018-05-10T14:56:04.940Z,42.00
2018-05-10T14:58:40.834Z,43.60
2018-05-10T15:01:15.964Z,43.50
2018-05-10T15:03:52.052Z,46.20
2018-05-10T15:06:28.170Z,46.50
2018-05-10T15:09:04.784Z,46.50
2018-05-10T15:11:39.977Z,46.40
2018-05-10T15:14:15.849Z,46.30
2018-05-10T15:16:51.047Z,46.30
2018-05-10T15:19:27.084Z,46.50
2018-05-10T15:22:02.317Z,46.50
2018-05-10T15:24:37.612Z,46.90
2018-05-10T15:27:12.829Z,47.20
2018-05-10T15:29:48.918Z,48.50
2018-05-10T15:32:24.100Z,48.50
2018-05-10T15:34:59.412Z,49.30
2018-05-10T15:37:34.623Z,50.00
2018-05-10T15:40:09.852Z,50.20
2018-05-10T15:42:45.054Z,49.70
2018-05-10T15:45:21.137Z,50.70
2018-05-10T15:47:56.501Z,50.70
2018-05-10T15:50:31.740Z,50.50
2018-05-10T15:53:06.876Z,50.80
2018-05-10T15:55:42.237Z,50.30
2018-05-10T15:58:18.253Z,51.40
2018-05-10T16:00:54.260Z,51.10
2018-05-10T16:03:29.426Z,51.10
2018-05-10T16:06:04.777Z,50.80
2018-05-10T16:08:40.074Z,51.10
2018-05-10T16:11:16.128Z,53.10
2018-05-10T16:13:51.391Z,53.00
2018-05-10T16:16:27.402Z,55.00
2018-05-10T16:19:02.539Z,55.00
2018-05-10T16:21:37.677Z,55.10
2018-05-10T16:24:12.907Z,55.10
2018-05-10T16:26:48.918Z,55.50
2018-05-10T16:29:24.116Z,55.40
2018-05-10T16:31:59.311Z,56.20
2018-05-10T16:34:34.666Z,55.80
2018-05-10T16:37:10.017Z,55.50
2018-05-10T16:39:45.365Z,55.40
2018-05-10T16:42:20.721Z,56.10
2018-05-10T16:44:55.820Z,56.70
2018-05-10T16:47:31.109Z,57.00
2018-05-10T16:50:07.039Z,57.60
2018-05-10T16:52:43.063Z,57.60
2018-05-10T16:55:18.407Z,57.60
2018-05-10T16:57:53.619Z,58.20
2018-05-10T17:00:29.634Z,60.20
2018-05-10T17:03:05.620Z,59.90
2018-05-10T17:05:41.610Z,60.30
2018-05-10T17:08:17.642Z,60.30
2018-05-10T17:10:52.930Z,61.80
2018-05-10T17:13:28.089Z,60.60
2018-05-10T17:16:03.293Z,60.40
2018-05-10T17:18:38.655Z,60.40
2018-05-10T17:21:14.531Z,61.50
2018-05-10T17:23:49.808Z,61.40
2018-05-10T17:26:24.958Z,62.70
2018-05-10T17:29:00.078Z,62.30
2018-05-10T17:31:35.466Z,61.00
2018-05-10T17:34:10.495Z,61.40
2018-05-10T17:36:45.686Z,60.80
2018-05-10T17:39:20.847Z,60.50
2018-05-10T17:41:55.966Z,60.20
2018-05-10T17:44:31.060Z,60.20
2018-05-10T17:47:07.077Z,60.10
2018-05-10T17:49:42.965Z,61.80
2018-05-10T17:52:18.817Z,63.10
2018-05-10T17:54:54.165Z,63.10
2018-05-10T17:57:29.456Z,62.90
2018-05-10T18:00:05.348Z,63.00
2018-05-10T18:02:40.673Z,63.00
2018-05-10T18:05:16.645Z,64.00
2018-05-10T18:07:52.545Z,64.60
2018-05-10T18:10:27.783Z,64.70
2018-05-10T18:13:03.183Z,65.00
2018-05-10T18:15:38.412Z,65.00
2018-05-10T18:18:13.705Z,65.90
2018-05-10T18:20:48.845Z,64.50
2018-05-10T18:23:24.252Z,64.10
2018-05-10T18:26:00.147Z,64.50
2018-05-10T18:28:35.348Z,64.40
2018-05-10T18:31:11.456Z,64.50
2018-05-10T18:33:46.782Z,64.50
2018-05-10T18:36:22.830Z,64.70
2018-05-10T18:38:58.101Z,64.70
2018-05-10T18:41:33.206Z,65.60
2018-05-10T18:44:10.205Z,65.40
2018-05-10T18:46:46.291Z,65.30
2018-05-10T18:49:21.547Z,65.30
2018-05-10T18:51:57.571Z,66.90
2018-05-10T18:54:33.540Z,67.30
2018-05-10T18:57:08.750Z,67.20
2018-05-10T18:59:44.023Z,66.80
2018-05-10T19:02:19.140Z,67.10
2018-05-10T19:04:54.584Z,67.30
2018-05-10T19:07:30.653Z,67.70
2018-05-10T19:10:05.647Z,66.90
2018-05-10T19:12:40.967Z,67.20
2018-05-10T19:15:16.380Z,67.70
2018-05-10T19:17:51.708Z,67.40
2018-05-10T19:20:27.061Z,68.00
2018-05-10T19:23:02.370Z,67.60
2018-05-10T19:25:37.685Z,68.50
2018-05-10T19:28:12.904Z,67.90
2018-05-10T19:30:48.084Z,68.20
2018-05-10T19:33:23.649Z,68.30
2018-05-10T19:35:59.155Z,68.80
2018-05-10T19:38:34.948Z,69.80
2018-05-10T19:41:10.099Z,68.50
2018-05-10T19:43:45.359Z,68.90
2018-05-10T19:46:21.331Z,68.00
2018-05-10T19:48:56.722Z,68.10
2018-05-10T19:51:32.705Z,68.40
2018-05-10T19:54:08.764Z,68.60
2018-05-10T19:56:44.567Z,68.60
2018-05-10T19:59:20.450Z,68.30
2018-05-10T20:01:55.625Z,68.30
2018-05-10T20:04:30.998Z,68.00
2018-05-10T20:07:07.099Z,67.60
2018-05-10T20:09:44.338Z,68.30
2018-05-10T20:12:21.212Z,70.40
2018-05-10T20:14:56.489Z,69.90
2018-05-10T20:17:31.856Z,68.70
2018-05-10T20:20:07.156Z,68.40
2018-05-10T20:22:42.481Z,68.20
2018-05-10T20:25:17.936Z,69.00
2018-05-10T20:27:54.493Z,70.40
2018-05-10T20:30:29.756Z,69.30
2018-05-10T20:33:05.066Z,68.50
2018-05-10T20:35:41.088Z,69.30
2018-05-10T20:38:18.352Z,69.20
2018-05-10T20:40:53.681Z,68.80
2018-05-10T20:43:28.858Z,68.60
2018-05-10T20:46:03.972Z,68.40
2018-05-10T20:48:39.222Z,69.40
2018-05-10T20:51:14.501Z,68.50
2018-05-10T20:53:49.784Z,68.40
2018-05-10T20:56:24.933Z,68.50
2018-05-10T20:59:01.013Z,68.20
2018-05-10T21:01:36.201Z,68.30
2018-05-10T21:04:12.668Z,68.40
2018-05-10T21:06:48.412Z,68.60
2018-05-10T21:09:23.677Z,68.60
2018-05-10T21:11:58.831Z,68.60
2018-05-10T21:14:34.002Z,68.70
2018-05-10T21:17:09.114Z,67.70
2018-05-10T21:19:45.023Z,69.00
2018-05-10T21:22:20.161Z,69.00
2018-05-10T21:24:55.353Z,69.40
2018-05-10T21:27:30.559Z,69.10
2018-05-10T21:30:06.726Z,69.70
2018-05-10T21:32:42.657Z,70.00
2018-05-10T21:35:17.843Z,69.90
2018-05-10T21:37:52.943Z,70.20
2018-05-10T21:40:28.884Z,71.70
2018-05-10T21:43:04.000Z,71.60
2018-05-10T21:45:39.364Z,72.00
2018-05-10T21:48:15.381Z,73.30
2018-05-10T21:50:51.275Z,73.50
2018-05-10T21:53:26.443Z,73.50
2018-05-10T21:56:02.348Z,74.00
2018-05-10T21:58:37.537Z,73.80
2018-05-10T22:01:13.475Z,73.80
2018-05-10T22:03:48.573Z,74.20
2018-05-10T22:06:24.577Z,74.80
2018-05-10T22:08:59.702Z,74.80
2018-05-10T22:11:34.979Z,75.10
2018-05-10T22:14:10.920Z,75.60
2018-05-10T22:16:46.240Z,75.70
2018-05-10T22:19:21.521Z,75.90
2018-05-10T22:21:57.407Z,75.80
2018-05-10T22:24:32.587Z,75.80
2018-05-10T22:27:07.802Z,75.80
2018-05-10T22:29:43.760Z,76.40
2018-05-10T22:32:18.926Z,76.20
2018-05-10T22:34:54.071Z,76.40
2018-05-10T22:37:29.338Z,77.30
2018-05-10T22:40:04.614Z,77.70
2018-05-10T22:42:39.851Z,77.80
2018-05-10T22:45:15.199Z,78.20
2018-05-10T22:47:50.357Z,78.10
2018-05-10T22:50:25.578Z,78.10
2018-05-10T22:53:00.901Z,78.80
2018-05-10T22:55:36.166Z,78.80
2018-05-10T22:58:11.373Z,79.30
2018-05-10T23:00:46.680Z,80.10
2018-05-10T23:03:21.989Z,80.80
2018-05-10T23:05:58.131Z,81.50
2018-05-10T23:08:33.453Z,81.20
2018-05-10T23:11:09.335Z,82.00
2018-05-10T23:13:44.598Z,82.00
2018-05-10T23:16:19.743Z,81.90
2018-05-10T23:18:55.071Z,83.00
2018-05-10T23:21:31.351Z,83.10
2018-05-10T23:24:06.493Z,83.70
2018-05-10T23:26:41.616Z,83.90
2018-05-10T23:29:16.725Z,84.60
2018-05-10T23:31:51.832Z,85.90
2018-05-10T23:34:27.126Z,85.70
2018-05-10T23:37:02.262Z,85.70
2018-05-10T23:39:38.158Z,86.40
2018-05-10T23:42:13.252Z,86.50
2018-05-10T23:44:48.336Z,87.00
2018-05-10T23:47:23.546Z,86.80
2018-05-10T23:49:58.664Z,88.10
2018-05-10T23:52:34.604Z,87.10
2018-05-10T23:55:10.528Z,87.10
2018-05-10T23:57:46.403Z,87.40
